sensor_id;sensor_type;location;lat;lon;timestamp;P1;durP1;ratioP1;P2;durP2;ratioP2
69532;SDS011;56729;52.036;5.332;2022-08-19T00:00:39;7.10;;;5.23;;
69532;SDS011;56729;52.036;5.332;2022-08-19T00:01:42;6.53;;;5.00;;
69532;SDS011;56729;52.036;5.332;2022-08-19T00:02:53;5.63;;;4.20;;
69532;SDS011;56729;52.036;5.332;2022-08-19T00:03:59;8.70;;;3.85;;
69532;SDS011;56729;52.036;5.332;2022-08-19T00:05:04;5.95;;;4.50;;
69532;SDS011;56729;52.036;5.332;2022-08-19T00:06:06;7.88;;;4.43;;
69532;SDS011;56729;52.036;5.332;2022-08-19T00:07:08;6.93;;;4.35;;
69532;SDS011;56729;52.036;5.332;2022-08-19T00:08:10;6.88;;;4.35;;
69532;SDS011;56729;52.036;5.332;2022-08-19T00:09:13;5.80;;;3.97;;
69532;SDS011;56729;52.036;5.332;2022-08-19T00:10:17;5.53;;;4.05;;
69532;SDS011;56729;52.036;5.332;2022-08-19T00:11:20;6.47;;;4.17;;
69532;SDS011;56729;52.036;5.332;2022-08-19T00:12:26;5.13;;;4.15;;
69532;SDS011;56729;52.036;5.332;2022-08-19T00:13:28;6.68;;;4.30;;
69532;SDS011;56729;52.036;5.332;2022-08-19T00:14:30;5.35;;;4.55;;
69532;SDS011;56729;52.036;5.332;2022-08-19T00:15:33;7.65;;;4.00;;
69532;SDS011;56729;52.036;5.332;2022-08-19T00:16:38;7.43;;;4.35;;
69532;SDS011;56729;52.036;5.332;2022-08-19T00:17:42;8.18;;;4.55;;
69532;SDS011;56729;52.036;5.332;2022-08-19T00:18:45;6.45;;;3.60;;
69532;SDS011;56729;52.036;5.332;2022-08-19T00:19:48;6.90;;;4.65;;
69532;SDS011;56729;52.036;5.332;2022-08-19T00:20:50;5.28;;;4.45;;
69532;SDS011;56729;52.036;5.332;2022-08-19T00:21:53;4.63;;;3.70;;
69532;SDS011;56729;52.036;5.332;2022-08-19T00:22:56;5.82;;;4.50;;
69532;SDS011;56729;52.036;5.332;2022-08-19T00:23:58;6.13;;;3.72;;
69532;SDS011;56729;52.036;5.332;2022-08-19T00:25:01;6.32;;;3.95;;
69532;SDS011;56729;52.036;5.332;2022-08-19T00:26:04;6.07;;;3.90;;
69532;SDS011;56729;52.036;5.332;2022-08-19T00:27:06;4.60;;;3.67;;
69532;SDS011;56729;52.036;5.332;2022-08-19T00:28:26;7.30;;;3.75;;
69532;SDS011;56729;52.036;5.332;2022-08-19T00:29:28;6.10;;;3.95;;
69532;SDS011;56729;52.036;5.332;2022-08-19T00:30:30;8.50;;;3.67;;
69532;SDS011;56729;52.036;5.332;2022-08-19T00:31:32;5.20;;;4.03;;
69532;SDS011;56729;52.036;5.332;2022-08-19T00:32:34;8.67;;;4.10;;
69532;SDS011;56729;52.036;5.332;2022-08-19T00:33:36;5.80;;;3.88;;
69532;SDS011;56729;52.036;5.332;2022-08-19T00:34:38;6.68;;;3.90;;
69532;SDS011;56729;52.036;5.332;2022-08-19T00:35:40;5.90;;;4.30;;
69532;SDS011;56729;52.036;5.332;2022-08-19T00:36:42;6.90;;;4.00;;
69532;SDS011;56729;52.036;5.332;2022-08-19T00:37:44;5.40;;;3.72;;
69532;SDS011;56729;52.036;5.332;2022-08-19T00:38:46;5.65;;;3.83;;
69532;SDS011;56729;52.036;5.332;2022-08-19T00:39:49;5.82;;;3.90;;
69532;SDS011;56729;52.036;5.332;2022-08-19T00:40:52;5.47;;;3.25;;
69532;SDS011;56729;52.036;5.332;2022-08-19T00:41:54;5.28;;;3.90;;
69532;SDS011;56729;52.036;5.332;2022-08-19T00:42:56;8.37;;;3.80;;
69532;SDS011;56729;52.036;5.332;2022-08-19T00:44:20;6.47;;;3.67;;
69532;SDS011;56729;52.036;5.332;2022-08-19T00:45:28;9.20;;;3.67;;
69532;SDS011;56729;52.036;5.332;2022-08-19T00:46:38;6.72;;;3.60;;
69532;SDS011;56729;52.036;5.332;2022-08-19T00:47:41;6.70;;;3.80;;
69532;SDS011;56729;52.036;5.332;2022-08-19T00:48:44;7.78;;;3.83;;
69532;SDS011;56729;52.036;5.332;2022-08-19T00:49:47;7.22;;;4.00;;
69532;SDS011;56729;52.036;5.332;2022-08-19T00:50:55;4.97;;;3.58;;
69532;SDS011;56729;52.036;5.332;2022-08-19T00:52:17;5.95;;;3.80;;
69532;SDS011;56729;52.036;5.332;2022-08-19T00:53:30;6.68;;;4.43;;
69532;SDS011;56729;52.036;5.332;2022-08-19T00:54:36;5.13;;;3.63;;
69532;SDS011;56729;52.036;5.332;2022-08-19T00:55:38;4.63;;;3.55;;
69532;SDS011;56729;52.036;5.332;2022-08-19T00:56:41;6.78;;;3.80;;
69532;SDS011;56729;52.036;5.332;2022-08-19T00:57:46;7.70;;;3.35;;
69532;SDS011;56729;52.036;5.332;2022-08-19T00:58:56;5.57;;;3.92;;
69532;SDS011;56729;52.036;5.332;2022-08-19T00:59:59;9.70;;;3.55;;
69532;SDS011;56729;52.036;5.332;2022-08-19T01:01:04;5.93;;;3.50;;
69532;SDS011;56729;52.036;5.332;2022-08-19T01:02:06;6.88;;;3.70;;
69532;SDS011;56729;52.036;5.332;2022-08-19T01:03:10;7.28;;;4.00;;
69532;SDS011;56729;52.036;5.332;2022-08-19T01:04:19;7.13;;;3.70;;
69532;SDS011;56729;52.036;5.332;2022-08-19T01:05:22;6.60;;;3.97;;
69532;SDS011;56729;52.036;5.332;2022-08-19T01:06:28;5.50;;;3.78;;
69532;SDS011;56729;52.036;5.332;2022-08-19T01:07:34;9.85;;;3.90;;
69532;SDS011;56729;52.036;5.332;2022-08-19T01:08:39;6.25;;;3.67;;
69532;SDS011;56729;52.036;5.332;2022-08-19T01:09:41;5.28;;;3.45;;
69532;SDS011;56729;52.036;5.332;2022-08-19T01:10:44;5.32;;;4.40;;
69532;SDS011;56729;52.036;5.332;2022-08-19T01:11:50;4.68;;;3.50;;
69532;SDS011;56729;52.036;5.332;2022-08-19T01:12:53;6.68;;;4.10;;
69532;SDS011;56729;52.036;5.332;2022-08-19T01:13:57;5.93;;;4.30;;
69532;SDS011;56729;52.036;5.332;2022-08-19T01:14:59;7.32;;;3.53;;
69532;SDS011;56729;52.036;5.332;2022-08-19T01:16:05;6.47;;;3.53;;
69532;SDS011;56729;52.036;5.332;2022-08-19T01:17:10;9.38;;;4.30;;
69532;SDS011;56729;52.036;5.332;2022-08-19T01:18:13;11.23;;;4.85;;
69532;SDS011;56729;52.036;5.332;2022-08-19T01:19:24;7.50;;;4.57;;
69532;SDS011;56729;52.036;5.332;2022-08-19T01:20:45;7.38;;;4.30;;
69532;SDS011;56729;52.036;5.332;2022-08-19T01:21:49;5.70;;;3.83;;
69532;SDS011;56729;52.036;5.332;2022-08-19T01:23:04;4.65;;;3.80;;
69532;SDS011;56729;52.036;5.332;2022-08-19T01:24:06;5.85;;;4.40;;
69532;SDS011;56729;52.036;5.332;2022-08-19T01:25:08;7.05;;;4.57;;
69532;SDS011;56729;52.036;5.332;2022-08-19T01:26:16;9.23;;;4.35;;
69532;SDS011;56729;52.036;5.332;2022-08-19T01:27:20;10.07;;;4.23;;
69532;SDS011;56729;52.036;5.332;2022-08-19T01:28:25;7.15;;;4.05;;
69532;SDS011;56729;52.036;5.332;2022-08-19T01:29:41;5.53;;;4.20;;
69532;SDS011;56729;52.036;5.332;2022-08-19T01:30:45;6.70;;;3.92;;
69532;SDS011;56729;52.036;5.332;2022-08-19T01:31:51;7.43;;;4.70;;
69532;SDS011;56729;52.036;5.332;2022-08-19T01:32:54;7.97;;;4.22;;
69532;SDS011;56729;52.036;5.332;2022-08-19T01:33:57;8.77;;;4.30;;
69532;SDS011;56729;52.036;5.332;2022-08-19T01:35:00;6.72;;;4.38;;
69532;SDS011;56729;52.036;5.332;2022-08-19T01:36:04;7.25;;;4.28;;
69532;SDS011;56729;52.036;5.332;2022-08-19T01:37:13;7.10;;;4.50;;
69532;SDS011;56729;52.036;5.332;2022-08-19T01:38:25;7.47;;;4.73;;
69532;SDS011;56729;52.036;5.332;2022-08-19T01:39:28;8.20;;;4.72;;
69532;SDS011;56729;52.036;5.332;2022-08-19T01:40:31;10.50;;;4.75;;
69532;SDS011;56729;52.036;5.332;2022-08-19T01:41:34;6.30;;;4.50;;
69532;SDS011;56729;52.036;5.332;2022-08-19T01:42:37;6.03;;;4.80;;
69532;SDS011;56729;52.036;5.332;2022-08-19T01:43:40;8.80;;;4.72;;
69532;SDS011;56729;52.036;5.332;2022-08-19T01:45:02;5.82;;;4.43;;
69532;SDS011;56729;52.036;5.332;2022-08-19T01:46:05;9.35;;;4.10;;
69532;SDS011;56729;52.036;5.332;2022-08-19T01:47:07;8.07;;;4.57;;
69532;SDS011;56729;52.036;5.332;2022-08-19T01:48:10;6.15;;;4.03;;
69532;SDS011;56729;52.036;5.332;2022-08-19T01:49:13;6.30;;;4.30;;
69532;SDS011;56729;52.036;5.332;2022-08-19T01:50:16;7.63;;;4.40;;
69532;SDS011;56729;52.036;5.332;2022-08-19T01:51:18;6.47;;;4.80;;
69532;SDS011;56729;52.036;5.332;2022-08-19T01:52:20;7.10;;;4.70;;
69532;SDS011;56729;52.036;5.332;2022-08-19T01:53:22;7.72;;;5.03;;
69532;SDS011;56729;52.036;5.332;2022-08-19T01:54:30;9.38;;;4.78;;
69532;SDS011;56729;52.036;5.332;2022-08-19T01:55:35;9.93;;;4.60;;
69532;SDS011;56729;52.036;5.332;2022-08-19T01:56:41;7.47;;;5.30;;
69532;SDS011;56729;52.036;5.332;2022-08-19T01:57:44;6.20;;;4.63;;
69532;SDS011;56729;52.036;5.332;2022-08-19T01:58:51;5.82;;;4.68;;
69532;SDS011;56729;52.036;5.332;2022-08-19T01:59:57;6.40;;;4.40;;
69532;SDS011;56729;52.036;5.332;2022-08-19T02:01:00;9.48;;;4.95;;
69532;SDS011;56729;52.036;5.332;2022-08-19T02:02:04;7.68;;;4.35;;
69532;SDS011;56729;52.036;5.332;2022-08-19T02:03:09;8.45;;;5.32;;
69532;SDS011;56729;52.036;5.332;2022-08-19T02:04:12;6.60;;;4.57;;
69532;SDS011;56729;52.036;5.332;2022-08-19T02:05:15;15.20;;;5.03;;
69532;SDS011;56729;52.036;5.332;2022-08-19T02:06:19;9.13;;;4.82;;
69532;SDS011;56729;52.036;5.332;2022-08-19T02:07:27;5.70;;;4.80;;
69532;SDS011;56729;52.036;5.332;2022-08-19T02:08:31;7.30;;;4.63;;
69532;SDS011;56729;52.036;5.332;2022-08-19T02:09:36;5.53;;;4.57;;
69532;SDS011;56729;52.036;5.332;2022-08-19T02:10:39;9.13;;;4.13;;
69532;SDS011;56729;52.036;5.332;2022-08-19T02:11:43;9.60;;;4.50;;
69532;SDS011;56729;52.036;5.332;2022-08-19T02:12:45;6.85;;;4.43;;
69532;SDS011;56729;52.036;5.332;2022-08-19T02:13:48;7.38;;;4.28;;
69532;SDS011;56729;52.036;5.332;2022-08-19T02:14:50;6.18;;;4.35;;
69532;SDS011;56729;52.036;5.332;2022-08-19T02:15:52;6.78;;;5.00;;
69532;SDS011;56729;52.036;5.332;2022-08-19T02:16:54;5.65;;;4.10;;
69532;SDS011;56729;52.036;5.332;2022-08-19T02:17:56;9.65;;;4.57;;
69532;SDS011;56729;52.036;5.332;2022-08-19T02:18:58;6.18;;;4.40;;
69532;SDS011;56729;52.036;5.332;2022-08-19T02:20:03;10.75;;;4.75;;
69532;SDS011;56729;52.036;5.332;2022-08-19T02:21:05;7.77;;;4.00;;
69532;SDS011;56729;52.036;5.332;2022-08-19T02:22:07;6.80;;;4.68;;
69532;SDS011;56729;52.036;5.332;2022-08-19T02:23:10;8.35;;;4.60;;
69532;SDS011;56729;52.036;5.332;2022-08-19T02:24:16;7.50;;;4.78;;
69532;SDS011;56729;52.036;5.332;2022-08-19T02:25:18;6.95;;;4.60;;
69532;SDS011;56729;52.036;5.332;2022-08-19T02:26:20;11.85;;;5.63;;
69532;SDS011;56729;52.036;5.332;2022-08-19T02:27:22;8.00;;;4.75;;
69532;SDS011;56729;52.036;5.332;2022-08-19T02:28:24;9.25;;;5.30;;
69532;SDS011;56729;52.036;5.332;2022-08-19T02:29:26;6.38;;;4.80;;
69532;SDS011;56729;52.036;5.332;2022-08-19T02:30:29;7.30;;;4.68;;
69532;SDS011;56729;52.036;5.332;2022-08-19T02:31:31;5.83;;;4.03;;
69532;SDS011;56729;52.036;5.332;2022-08-19T02:32:34;6.90;;;4.82;;
69532;SDS011;56729;52.036;5.332;2022-08-19T02:33:45;5.72;;;4.15;;
69532;SDS011;56729;52.036;5.332;2022-08-19T02:34:48;6.35;;;4.47;;
69532;SDS011;56729;52.036;5.332;2022-08-19T02:35:50;5.63;;;4.60;;
69532;SDS011;56729;52.036;5.332;2022-08-19T02:36:52;7.70;;;5.53;;
69532;SDS011;56729;52.036;5.332;2022-08-19T02:37:54;6.18;;;4.15;;
69532;SDS011;56729;52.036;5.332;2022-08-19T02:39:14;11.90;;;4.00;;
69532;SDS011;56729;52.036;5.332;2022-08-19T02:40:16;6.38;;;4.18;;
69532;SDS011;56729;52.036;5.332;2022-08-19T02:41:20;6.20;;;4.53;;
69532;SDS011;56729;52.036;5.332;2022-08-19T02:42:28;6.07;;;4.50;;
69532;SDS011;56729;52.036;5.332;2022-08-19T02:43:30;9.07;;;4.68;;
69532;SDS011;56729;52.036;5.332;2022-08-19T02:44:37;8.43;;;4.85;;
69532;SDS011;56729;52.036;5.332;2022-08-19T02:45:39;8.15;;;5.28;;
69532;SDS011;56729;52.036;5.332;2022-08-19T02:46:42;7.30;;;5.75;;
69532;SDS011;56729;52.036;5.332;2022-08-19T02:47:45;8.30;;;4.70;;
69532;SDS011;56729;52.036;5.332;2022-08-19T02:48:48;8.50;;;5.10;;
69532;SDS011;56729;52.036;5.332;2022-08-19T02:49:51;9.40;;;5.10;;
69532;SDS011;56729;52.036;5.332;2022-08-19T02:50:52;7.32;;;5.82;;
69532;SDS011;56729;52.036;5.332;2022-08-19T02:51:57;9.60;;;5.30;;
69532;SDS011;56729;52.036;5.332;2022-08-19T02:52:59;10.57;;;5.80;;
69532;SDS011;56729;52.036;5.332;2022-08-19T02:54:02;6.68;;;4.85;;
69532;SDS011;56729;52.036;5.332;2022-08-19T02:55:05;11.80;;;5.80;;
69532;SDS011;56729;52.036;5.332;2022-08-19T02:56:08;7.88;;;6.00;;
69532;SDS011;56729;52.036;5.332;2022-08-19T02:57:10;10.25;;;6.20;;
69532;SDS011;56729;52.036;5.332;2022-08-19T02:58:12;7.28;;;5.28;;
69532;SDS011;56729;52.036;5.332;2022-08-19T02:59:15;6.47;;;5.15;;
69532;SDS011;56729;52.036;5.332;2022-08-19T03:00:17;10.02;;;5.63;;
69532;SDS011;56729;52.036;5.332;2022-08-19T03:01:38;12.70;;;6.53;;
69532;SDS011;56729;52.036;5.332;2022-08-19T03:02:42;8.90;;;6.68;;
69532;SDS011;56729;52.036;5.332;2022-08-19T03:03:44;14.40;;;6.53;;
69532;SDS011;56729;52.036;5.332;2022-08-19T03:04:46;8.50;;;6.55;;
69532;SDS011;56729;52.036;5.332;2022-08-19T03:05:48;8.35;;;6.38;;
69532;SDS011;56729;52.036;5.332;2022-08-19T03:06:57;8.93;;;6.43;;
69532;SDS011;56729;52.036;5.332;2022-08-19T03:08:11;11.73;;;7.80;;
69532;SDS011;56729;52.036;5.332;2022-08-19T03:09:14;10.23;;;7.85;;
69532;SDS011;56729;52.036;5.332;2022-08-19T03:10:17;10.43;;;7.07;;
69532;SDS011;56729;52.036;5.332;2022-08-19T03:11:20;10.15;;;6.90;;
69532;SDS011;56729;52.036;5.332;2022-08-19T03:12:27;13.15;;;7.05;;
69532;SDS011;56729;52.036;5.332;2022-08-19T03:13:29;9.50;;;6.40;;
69532;SDS011;56729;52.036;5.332;2022-08-19T03:14:32;10.10;;;6.00;;
69532;SDS011;56729;52.036;5.332;2022-08-19T03:15:34;12.18;;;6.88;;
69532;SDS011;56729;52.036;5.332;2022-08-19T03:16:41;10.82;;;5.85;;
69532;SDS011;56729;52.036;5.332;2022-08-19T03:17:48;8.23;;;6.32;;
69532;SDS011;56729;52.036;5.332;2022-08-19T03:18:51;9.18;;;6.65;;
69532;SDS011;56729;52.036;5.332;2022-08-19T03:19:54;12.25;;;6.55;;
69532;SDS011;56729;52.036;5.332;2022-08-19T03:20:57;8.30;;;5.97;;
69532;SDS011;56729;52.036;5.332;2022-08-19T03:21:59;11.75;;;8.35;;
69532;SDS011;56729;52.036;5.332;2022-08-19T03:23:01;12.10;;;7.07;;
69532;SDS011;56729;52.036;5.332;2022-08-19T03:24:04;11.88;;;7.63;;
69532;SDS011;56729;52.036;5.332;2022-08-19T03:25:08;12.40;;;9.13;;
69532;SDS011;56729;52.036;5.332;2022-08-19T03:26:10;14.93;;;8.95;;
69532;SDS011;56729;52.036;5.332;2022-08-19T03:27:16;11.98;;;7.90;;
69532;SDS011;56729;52.036;5.332;2022-08-19T03:28:19;13.30;;;8.05;;
69532;SDS011;56729;52.036;5.332;2022-08-19T03:29:22;13.43;;;8.23;;
69532;SDS011;56729;52.036;5.332;2022-08-19T03:30:31;17.05;;;8.10;;
69532;SDS011;56729;52.036;5.332;2022-08-19T03:31:34;13.18;;;8.45;;
69532;SDS011;56729;52.036;5.332;2022-08-19T03:32:53;12.00;;;7.15;;
69532;SDS011;56729;52.036;5.332;2022-08-19T03:33:57;13.77;;;7.80;;
69532;SDS011;56729;52.036;5.332;2022-08-19T03:34:59;8.20;;;6.97;;
69532;SDS011;56729;52.036;5.332;2022-08-19T03:36:03;10.30;;;7.50;;
69532;SDS011;56729;52.036;5.332;2022-08-19T03:37:09;12.63;;;7.78;;
69532;SDS011;56729;52.036;5.332;2022-08-19T03:38:15;12.10;;;6.90;;
69532;SDS011;56729;52.036;5.332;2022-08-19T03:39:17;10.82;;;8.70;;
69532;SDS011;56729;52.036;5.332;2022-08-19T03:40:19;17.90;;;8.93;;
69532;SDS011;56729;52.036;5.332;2022-08-19T03:41:22;11.35;;;8.85;;
69532;SDS011;56729;52.036;5.332;2022-08-19T03:42:44;9.98;;;8.20;;
69532;SDS011;56729;52.036;5.332;2022-08-19T03:43:59;13.35;;;9.35;;
69532;SDS011;56729;52.036;5.332;2022-08-19T03:45:01;13.25;;;9.15;;
69532;SDS011;56729;52.036;5.332;2022-08-19T03:46:05;19.38;;;9.10;;
69532;SDS011;56729;52.036;5.332;2022-08-19T03:47:09;13.67;;;8.80;;
69532;SDS011;56729;52.036;5.332;2022-08-19T03:48:17;14.40;;;9.07;;
69532;SDS011;56729;52.036;5.332;2022-08-19T03:49:19;16.02;;;9.90;;
69532;SDS011;56729;52.036;5.332;2022-08-19T03:50:28;14.23;;;10.20;;
69532;SDS011;56729;52.036;5.332;2022-08-19T03:51:32;13.48;;;10.40;;
69532;SDS011;56729;52.036;5.332;2022-08-19T03:52:36;12.75;;;9.70;;
69532;SDS011;56729;52.036;5.332;2022-08-19T03:53:38;14.38;;;8.65;;
69532;SDS011;56729;52.036;5.332;2022-08-19T03:54:40;12.15;;;8.27;;
69532;SDS011;56729;52.036;5.332;2022-08-19T03:55:42;12.40;;;8.77;;
69532;SDS011;56729;52.036;5.332;2022-08-19T03:56:45;12.32;;;8.30;;
69532;SDS011;56729;52.036;5.332;2022-08-19T03:57:48;12.97;;;7.70;;
69532;SDS011;56729;52.036;5.332;2022-08-19T03:58:50;16.58;;;10.15;;
69532;SDS011;56729;52.036;5.332;2022-08-19T03:59:53;16.08;;;9.90;;
69532;SDS011;56729;52.036;5.332;2022-08-19T04:01:17;14.45;;;9.13;;
69532;SDS011;56729;52.036;5.332;2022-08-19T04:02:35;19.02;;;10.77;;
69532;SDS011;56729;52.036;5.332;2022-08-19T04:03:37;14.13;;;9.38;;
69532;SDS011;56729;52.036;5.332;2022-08-19T04:04:40;13.63;;;9.35;;
69532;SDS011;56729;52.036;5.332;2022-08-19T04:05:45;15.55;;;9.75;;
69532;SDS011;56729;52.036;5.332;2022-08-19T04:06:48;16.33;;;9.07;;
69532;SDS011;56729;52.036;5.332;2022-08-19T04:07:50;10.25;;;8.10;;
69532;SDS011;56729;52.036;5.332;2022-08-19T04:08:53;11.07;;;7.53;;
69532;SDS011;56729;52.036;5.332;2022-08-19T04:09:56;10.25;;;7.63;;
69532;SDS011;56729;52.036;5.332;2022-08-19T04:10:58;10.65;;;7.80;;
69532;SDS011;56729;52.036;5.332;2022-08-19T04:12:00;11.90;;;7.72;;
69532;SDS011;56729;52.036;5.332;2022-08-19T04:13:03;10.98;;;8.02;;
69532;SDS011;56729;52.036;5.332;2022-08-19T04:14:07;11.63;;;8.57;;
69532;SDS011;56729;52.036;5.332;2022-08-19T04:15:13;12.77;;;8.20;;
69532;SDS011;56729;52.036;5.332;2022-08-19T04:16:17;10.95;;;7.65;;
69532;SDS011;56729;52.036;5.332;2022-08-19T04:17:20;9.98;;;7.15;;
69532;SDS011;56729;52.036;5.332;2022-08-19T04:18:23;12.23;;;8.45;;
69532;SDS011;56729;52.036;5.332;2022-08-19T04:19:25;10.00;;;8.07;;
69532;SDS011;56729;52.036;5.332;2022-08-19T04:20:28;11.65;;;8.60;;
69532;SDS011;56729;52.036;5.332;2022-08-19T04:21:30;13.23;;;8.35;;
69532;SDS011;56729;52.036;5.332;2022-08-19T04:22:32;10.88;;;8.82;;
69532;SDS011;56729;52.036;5.332;2022-08-19T04:23:34;11.07;;;8.35;;
69532;SDS011;56729;52.036;5.332;2022-08-19T04:24:44;12.35;;;8.13;;
69532;SDS011;56729;52.036;5.332;2022-08-19T04:25:46;14.40;;;8.93;;
69532;SDS011;56729;52.036;5.332;2022-08-19T04:26:48;14.32;;;9.07;;
69532;SDS011;56729;52.036;5.332;2022-08-19T04:27:51;14.90;;;9.65;;
69532;SDS011;56729;52.036;5.332;2022-08-19T04:28:53;13.43;;;9.40;;
69532;SDS011;56729;52.036;5.332;2022-08-19T04:29:56;13.17;;;9.40;;
69532;SDS011;56729;52.036;5.332;2022-08-19T04:30:58;13.30;;;10.35;;
69532;SDS011;56729;52.036;5.332;2022-08-19T04:32:00;13.93;;;9.30;;
69532;SDS011;56729;52.036;5.332;2022-08-19T04:33:10;11.15;;;9.13;;
69532;SDS011;56729;52.036;5.332;2022-08-19T04:34:15;11.57;;;9.30;;
69532;SDS011;56729;52.036;5.332;2022-08-19T04:35:18;14.88;;;9.23;;
69532;SDS011;56729;52.036;5.332;2022-08-19T04:36:26;13.70;;;9.20;;
69532;SDS011;56729;52.036;5.332;2022-08-19T04:37:30;12.00;;;9.13;;
69532;SDS011;56729;52.036;5.332;2022-08-19T04:38:35;18.25;;;9.63;;
69532;SDS011;56729;52.036;5.332;2022-08-19T04:39:38;12.18;;;9.05;;
69532;SDS011;56729;52.036;5.332;2022-08-19T04:41:02;14.47;;;9.63;;
69532;SDS011;56729;52.036;5.332;2022-08-19T04:42:23;18.27;;;10.05;;
69532;SDS011;56729;52.036;5.332;2022-08-19T04:43:40;17.55;;;9.27;;
69532;SDS011;56729;52.036;5.332;2022-08-19T04:44:42;17.05;;;9.45;;
69532;SDS011;56729;52.036;5.332;2022-08-19T04:45:46;12.38;;;9.05;;
69532;SDS011;56729;52.036;5.332;2022-08-19T04:46:49;13.50;;;9.23;;
69532;SDS011;56729;52.036;5.332;2022-08-19T04:47:54;14.77;;;9.25;;
69532;SDS011;56729;52.036;5.332;2022-08-19T04:49:20;14.05;;;8.93;;
69532;SDS011;56729;52.036;5.332;2022-08-19T04:50:24;12.40;;;8.52;;
69532;SDS011;56729;52.036;5.332;2022-08-19T04:51:27;11.82;;;8.32;;
69532;SDS011;56729;52.036;5.332;2022-08-19T04:52:32;10.20;;;8.70;;
69532;SDS011;56729;52.036;5.332;2022-08-19T04:53:36;11.90;;;8.88;;
69532;SDS011;56729;52.036;5.332;2022-08-19T04:54:38;14.18;;;9.20;;
69532;SDS011;56729;52.036;5.332;2022-08-19T04:55:42;14.02;;;9.05;;
69532;SDS011;56729;52.036;5.332;2022-08-19T04:56:44;15.18;;;9.73;;
69532;SDS011;56729;52.036;5.332;2022-08-19T04:57:46;12.27;;;8.93;;
69532;SDS011;56729;52.036;5.332;2022-08-19T04:58:48;15.02;;;8.77;;
69532;SDS011;56729;52.036;5.332;2022-08-19T04:59:55;14.48;;;9.35;;
69532;SDS011;56729;52.036;5.332;2022-08-19T05:00:57;17.00;;;10.25;;
69532;SDS011;56729;52.036;5.332;2022-08-19T05:02:01;15.25;;;10.13;;
69532;SDS011;56729;52.036;5.332;2022-08-19T05:03:04;16.93;;;8.87;;
69532;SDS011;56729;52.036;5.332;2022-08-19T05:04:08;13.32;;;9.75;;
69532;SDS011;56729;52.036;5.332;2022-08-19T05:05:10;15.85;;;9.00;;
69532;SDS011;56729;52.036;5.332;2022-08-19T05:06:13;11.93;;;9.57;;
69532;SDS011;56729;52.036;5.332;2022-08-19T05:07:16;13.20;;;9.25;;
69532;SDS011;56729;52.036;5.332;2022-08-19T05:08:19;12.07;;;9.90;;
69532;SDS011;56729;52.036;5.332;2022-08-19T05:09:32;13.55;;;9.75;;
69532;SDS011;56729;52.036;5.332;2022-08-19T05:10:55;15.55;;;10.15;;
69532;SDS011;56729;52.036;5.332;2022-08-19T05:11:58;13.30;;;9.93;;
69532;SDS011;56729;52.036;5.332;2022-08-19T05:13:01;15.00;;;11.00;;
69532;SDS011;56729;52.036;5.332;2022-08-19T05:14:04;13.63;;;10.17;;
69532;SDS011;56729;52.036;5.332;2022-08-19T05:15:07;12.05;;;9.25;;
69532;SDS011;56729;52.036;5.332;2022-08-19T05:16:10;17.67;;;9.05;;
69532;SDS011;56729;52.036;5.332;2022-08-19T05:17:14;12.02;;;9.00;;
69532;SDS011;56729;52.036;5.332;2022-08-19T05:18:36;13.35;;;9.75;;
69532;SDS011;56729;52.036;5.332;2022-08-19T05:19:57;12.95;;;9.43;;
69532;SDS011;56729;52.036;5.332;2022-08-19T05:21:18;13.50;;;9.40;;
69532;SDS011;56729;52.036;5.332;2022-08-19T05:22:40;14.07;;;9.30;;
69532;SDS011;56729;52.036;5.332;2022-08-19T05:23:43;15.25;;;10.35;;
69532;SDS011;56729;52.036;5.332;2022-08-19T05:24:45;15.52;;;9.25;;
69532;SDS011;56729;52.036;5.332;2022-08-19T05:26:08;13.50;;;9.10;;
69532;SDS011;56729;52.036;5.332;2022-08-19T05:27:12;11.85;;;9.35;;
69532;SDS011;56729;52.036;5.332;2022-08-19T05:28:14;12.60;;;9.23;;
69532;SDS011;56729;52.036;5.332;2022-08-19T05:29:17;13.18;;;8.98;;
69532;SDS011;56729;52.036;5.332;2022-08-19T05:30:22;16.20;;;9.25;;
69532;SDS011;56729;52.036;5.332;2022-08-19T05:31:42;13.95;;;10.18;;
69532;SDS011;56729;52.036;5.332;2022-08-19T05:32:46;15.05;;;10.13;;
69532;SDS011;56729;52.036;5.332;2022-08-19T05:33:48;17.27;;;10.68;;
69532;SDS011;56729;52.036;5.332;2022-08-19T05:34:51;17.83;;;11.13;;
69532;SDS011;56729;52.036;5.332;2022-08-19T05:35:53;17.73;;;10.80;;
69532;SDS011;56729;52.036;5.332;2022-08-19T05:36:56;12.53;;;9.67;;
69532;SDS011;56729;52.036;5.332;2022-08-19T05:37:59;14.07;;;9.82;;
69532;SDS011;56729;52.036;5.332;2022-08-19T05:39:02;14.73;;;9.70;;
69532;SDS011;56729;52.036;5.332;2022-08-19T05:40:05;14.70;;;10.68;;
69532;SDS011;56729;52.036;5.332;2022-08-19T05:41:09;12.77;;;9.80;;
69532;SDS011;56729;52.036;5.332;2022-08-19T05:42:12;12.57;;;9.90;;
69532;SDS011;56729;52.036;5.332;2022-08-19T05:43:14;13.38;;;10.25;;
69532;SDS011;56729;52.036;5.332;2022-08-19T05:44:19;19.15;;;11.48;;
69532;SDS011;56729;52.036;5.332;2022-08-19T05:45:23;18.60;;;11.05;;
69532;SDS011;56729;52.036;5.332;2022-08-19T05:46:25;19.90;;;11.32;;
69532;SDS011;56729;52.036;5.332;2022-08-19T05:47:28;20.90;;;12.03;;
69532;SDS011;56729;52.036;5.332;2022-08-19T05:48:32;22.60;;;12.45;;
69532;SDS011;56729;52.036;5.332;2022-08-19T05:49:36;18.88;;;12.55;;
69532;SDS011;56729;52.036;5.332;2022-08-19T05:50:38;18.77;;;11.55;;
69532;SDS011;56729;52.036;5.332;2022-08-19T05:51:42;19.75;;;11.63;;
69532;SDS011;56729;52.036;5.332;2022-08-19T05:52:44;19.88;;;11.60;;
69532;SDS011;56729;52.036;5.332;2022-08-19T05:53:54;13.52;;;10.27;;
69532;SDS011;56729;52.036;5.332;2022-08-19T05:54:56;19.40;;;10.98;;
69532;SDS011;56729;52.036;5.332;2022-08-19T05:56:02;14.02;;;9.73;;
69532;SDS011;56729;52.036;5.332;2022-08-19T05:57:17;14.88;;;9.88;;
69532;SDS011;56729;52.036;5.332;2022-08-19T05:58:21;17.47;;;9.73;;
69532;SDS011;56729;52.036;5.332;2022-08-19T05:59:28;17.40;;;11.00;;
69532;SDS011;56729;52.036;5.332;2022-08-19T06:00:31;18.95;;;11.32;;
69532;SDS011;56729;52.036;5.332;2022-08-19T06:01:33;14.68;;;10.82;;
69532;SDS011;56729;52.036;5.332;2022-08-19T06:02:36;20.73;;;12.77;;
69532;SDS011;56729;52.036;5.332;2022-08-19T06:03:38;14.05;;;10.30;;
69532;SDS011;56729;52.036;5.332;2022-08-19T06:04:40;16.95;;;11.10;;
69532;SDS011;56729;52.036;5.332;2022-08-19T06:05:44;20.17;;;11.27;;
69532;SDS011;56729;52.036;5.332;2022-08-19T06:06:52;18.55;;;11.57;;
69532;SDS011;56729;52.036;5.332;2022-08-19T06:07:55;19.77;;;11.68;;
69532;SDS011;56729;52.036;5.332;2022-08-19T06:08:57;24.13;;;13.53;;
69532;SDS011;56729;52.036;5.332;2022-08-19T06:10:00;22.73;;;13.82;;
69532;SDS011;56729;52.036;5.332;2022-08-19T06:11:21;23.23;;;13.98;;
69532;SDS011;56729;52.036;5.332;2022-08-19T06:12:23;24.25;;;13.00;;
69532;SDS011;56729;52.036;5.332;2022-08-19T06:13:29;21.13;;;12.38;;
69532;SDS011;56729;52.036;5.332;2022-08-19T06:14:35;21.30;;;13.32;;
69532;SDS011;56729;52.036;5.332;2022-08-19T06:15:42;23.92;;;13.07;;
69532;SDS011;56729;52.036;5.332;2022-08-19T06:16:45;27.35;;;14.07;;
69532;SDS011;56729;52.036;5.332;2022-08-19T06:17:47;23.42;;;13.63;;
69532;SDS011;56729;52.036;5.332;2022-08-19T06:18:50;24.40;;;14.15;;
69532;SDS011;56729;52.036;5.332;2022-08-19T06:19:53;28.77;;;15.20;;
69532;SDS011;56729;52.036;5.332;2022-08-19T06:20:55;24.65;;;13.48;;
69532;SDS011;56729;52.036;5.332;2022-08-19T06:21:57;23.00;;;13.13;;
69532;SDS011;56729;52.036;5.332;2022-08-19T06:23:00;28.20;;;13.88;;
69532;SDS011;56729;52.036;5.332;2022-08-19T06:24:03;25.85;;;14.02;;
69532;SDS011;56729;52.036;5.332;2022-08-19T06:25:07;21.05;;;13.02;;
69532;SDS011;56729;52.036;5.332;2022-08-19T06:26:13;25.77;;;13.63;;
69532;SDS011;56729;52.036;5.332;2022-08-19T06:27:16;26.52;;;14.60;;